Time;durP1;ratioP1;P1;durP2;ratioP2;P2;SDS_P1;SDS_P2;PMS_P1;PMS_P2;Temp;Humidity;BMP_temperature;BMP_pressure;BME280_temperature;BME280_humidity;BME280_pressure;Samples;Min_cycle;Max_cycle;Signal;HPM_P1;HPM_P2
2021/01/21 00:01:57;;;;;;;0.00;0.00;;;;;;;;;;5023205;28;20219;-62
2021/01/21 00:04:27;;;;;;;0.00;0.00;;;;;;;;;;5029055;28;20175;-63
2021/01/21 00:06:54;;;;;;;0.00;0.00;;;;;;;;;;5020330;28;20733;-62
2021/01/21 00:09:21;;;;;;;0.00;0.00;;;;;;;;;;5022004;28;20180;-62
2021/01/21 00:11:48;;;;;;;0.00;0.00;;;;;;;;;;5038819;28;20289;-61
2021/01/21 00:14:15;;;;;;;0.00;0.00;;;;;;;;;;5021907;28;20204;-61
2021/01/21 00:16:42;;;;;;;0.00;0.00;;;;;;;;;;5018469;28;20215;-60
2021/01/21 00:19:09;;;;;;;0.43;0.43;;;;;;;;;;5014810;28;20194;-60
2021/01/21 00:21:37;;;;;;;0.30;0.30;;;;;;;;;;5020150;28;20188;-62
2021/01/21 00:24:05;;;;;;;0.10;0.10;;;;;;;;;;5020506;28;20187;-62
2021/01/21 00:27:04;;;;;;;2.00;1.90;;;;;;;;;;5027415;28;20257;-61
2021/01/21 00:32:35;;;;;;;0.10;0.10;;;;;;;;;;5034908;28;20585;-61
2021/01/21 00:35:03;;;;;;;0.00;0.00;;;;;;;;;;5024797;28;20221;-63
2021/01/21 00:37:33;;;;;;;0.10;0.10;;;;;;;;;;5026504;28;20541;-62
2021/01/21 00:40:00;;;;;;;0.00;0.00;;;;;;;;;;5015351;28;20657;-62
2021/01/21 00:42:27;;;;;;;0.00;0.00;;;;;;;;;;5020008;28;20227;-63
2021/01/21 00:44:55;;;;;;;0.10;0.10;;;;;;;;;;5019902;28;20199;-63
2021/01/21 00:47:22;;;;;;;0.00;0.00;;;;;;;;;;5017318;28;20557;-65
2021/01/21 00:49:54;;;;;;;0.00;0.00;;;;;;;;;;5019745;28;20194;-64
2021/01/21 00:52:21;;;;;;;0.00;0.00;;;;;;;;;;5020150;28;20191;-63
2021/01/21 00:54:48;;;;;;;0.00;0.00;;;;;;;;;;5020010;28;20179;-64
2021/01/21 00:57:15;;;;;;;0.20;0.20;;;;;;;;;;5019815;28;20190;-63
2021/01/21 00:59:42;;;;;;;0.10;0.10;;;;;;;;;;5017388;28;20190;-63
2021/01/21 01:02:13;;;;;;;0.10;0.10;;;;;;;;;;5017926;28;20220;-63
2021/01/21 01:04:40;;;;;;;1.30;0.20;;;;;;;;;;5017970;28;20189;-63
2021/01/21 01:07:10;;;;;;;0.00;0.00;;;;;;;;;;5019037;28;20618;-63
2021/01/21 01:09:37;;;;;;;0.00;0.00;;;;;;;;;;5014234;28;20184;-64
2021/01/21 01:12:04;;;;;;;0.00;0.00;;;;;;;;;;5018177;28;20187;-63
2021/01/21 01:14:31;;;;;;;0.00;0.00;;;;;;;;;;5016908;28;20183;-65
2021/01/21 01:16:58;;;;;;;0.07;0.07;;;;;;;;;;5021883;28;20191;-63
2021/01/21 01:19:25;;;;;;;0.13;0.13;;;;;;;;;;5016874;28;20650;-63
2021/01/21 01:21:52;;;;;;;0.00;0.00;;;;;;;;;;5019621;28;20231;-64
2021/01/21 01:24:22;;;;;;;0.00;0.00;;;;;;;;;;5019502;28;20219;-63
2021/01/21 01:26:54;;;;;;;0.00;0.00;;;;;;;;;;5018541;28;20187;-63
2021/01/21 01:29:21;;;;;;;0.07;0.07;;;;;;;;;;5018633;28;20193;-65
2021/01/21 01:31:54;;;;;;;0.10;0.10;;;;;;;;;;5015413;28;20175;-64
2021/01/21 01:34:22;;;;;;;0.00;0.00;;;;;;;;;;5007659;28;20262;-64
2021/01/21 01:36:50;;;;;;;0.00;0.00;;;;;;;;;;5011125;28;20200;-63
2021/01/21 01:39:21;;;;;;;2.57;0.97;;;;;;;;;;5015307;28;20197;-64
2021/01/21 01:41:48;;;;;;;0.30;0.30;;;;;;;;;;5015169;28;20193;-62
2021/01/21 01:44:18;;;;;;;0.00;0.00;;;;;;;;;;5013899;28;20817;-63
2021/01/21 01:46:45;;;;;;;0.00;0.00;;;;;;;;;;5014544;28;20255;-62
2021/01/21 01:49:12;;;;;;;0.00;0.00;;;;;;;;;;5011695;28;20587;-62
2021/01/21 01:51:43;;;;;;;0.47;0.47;;;;;;;;;;5014746;28;20230;-63
2021/01/21 01:54:12;;;;;;;19.07;0.97;;;;;;;;;;5019450;28;20195;-64
2021/01/21 01:56:40;;;;;;;0.00;0.00;;;;;;;;;;5017917;28;20267;-63
2021/01/21 01:59:07;;;;;;;0.10;0.10;;;;;;;;;;5013188;28;20398;-63
2021/01/21 02:01:34;;;;;;;0.00;0.00;;;;;;;;;;5020049;28;20190;-64
2021/01/21 02:04:01;;;;;;;0.00;0.00;;;;;;;;;;5014499;28;20184;-64
2021/01/21 02:06:29;;;;;;;0.00;0.00;;;;;;;;;;5019513;28;20194;-64
2021/01/21 02:08:57;;;;;;;0.77;0.77;;;;;;;;;;5019706;28;20264;-63
2021/01/21 02:11:28;;;;;;;0.00;0.00;;;;;;;;;;5020554;28;20573;-63
2021/01/21 02:14:02;;;;;;;0.00;0.00;;;;;;;;;;5018434;28;20186;-63
2021/01/21 02:16:47;;;;;;;0.20;0.20;;;;;;;;;;5015933;28;20179;-64
2021/01/21 02:19:22;;;;;;;0.00;0.00;;;;;;;;;;5010964;28;20292;-64
2021/01/21 02:22:07;;;;;;;1.23;0.70;;;;;;;;;;5010719;28;20738;-63
2021/01/21 02:24:34;;;;;;;0.30;0.23;;;;;;;;;;5016213;28;20478;-63
2021/01/21 02:27:05;;;;;;;0.47;0.47;;;;;;;;;;5014109;28;20587;-64
2021/01/21 02:29:39;;;;;;;0.00;0.00;;;;;;;;;;5012330;28;20187;-64
2021/01/21 02:32:05;;;;;;;0.00;0.00;;;;;;;;;;5015465;28;20188;-64
2021/01/21 02:34:35;;;;;;;0.00;0.00;;;;;;;;;;5015311;28;20183;-66
2021/01/21 02:37:02;;;;;;;0.00;0.00;;;;;;;;;;5023534;28;20184;-66
2021/01/21 02:39:30;;;;;;;0.00;0.00;;;;;;;;;;5017355;28;20177;-63
2021/01/21 02:41:57;;;;;;;0.00;0.00;;;;;;;;;;5017483;28;20383;-63
2021/01/21 02:44:28;;;;;;;0.00;0.00;;;;;;;;;;5018351;28;20184;-62
2021/01/21 02:46:55;;;;;;;0.00;0.00;;;;;;;;;;5018833;28;20223;-62
2021/01/21 02:49:22;;;;;;;0.00;0.00;;;;;;;;;;5017666;28;20184;-65
2021/01/21 02:52:09;;;;;;;0.00;0.00;;;;;;;;;;5018935;28;20171;-63
2021/01/21 02:54:53;;;;;;;0.00;0.00;;;;;;;;;;5018865;28;20180;-63
2021/01/21 02:57:34;;;;;;;0.00;0.00;;;;;;;;;;5019335;28;20210;-63
2021/01/21 03:00:04;;;;;;;0.10;0.10;;;;;;;;;;5012470;28;20175;-63
2021/01/21 03:02:31;;;;;;;0.00;0.00;;;;;;;;;;5020422;28;20302;-62
2021/01/21 03:05:00;;;;;;;0.00;0.00;;;;;;;;;;5017862;28;20171;-63
2021/01/21 03:07:27;;;;;;;0.00;0.00;;;;;;;;;;5018631;28;20244;-63
2021/01/21 03:09:54;;;;;;;0.00;0.00;;;;;;;;;;5017344;28;20577;-63
2021/01/21 03:12:25;;;;;;;0.00;0.00;;;;;;;;;;5025770;28;20197;-62
2021/01/21 03:14:54;;;;;;;0.13;0.13;;;;;;;;;;5020130;28;20188;-62
2021/01/21 03:17:24;;;;;;;0.00;0.00;;;;;;;;;;5020427;28;20594;-64
2021/01/21 03:19:51;;;;;;;0.33;0.20;;;;;;;;;;5023835;28;20645;-64
2021/01/21 03:22:18;;;;;;;0.00;0.00;;;;;;;;;;5025020;28;20644;-64
2021/01/21 03:24:45;;;;;;;0.30;0.30;;;;;;;;;;5025829;28;20189;-62
2021/01/21 03:27:11;;;;;;;0.77;0.77;;;;;;;;;;5025644;28;20660;-64
2021/01/21 03:29:39;;;;;;;0.10;0.10;;;;;;;;;;5024041;28;20261;-62
2021/01/21 03:32:06;;;;;;;0.30;0.30;;;;;;;;;;5019926;28;20266;-63
2021/01/21 03:34:32;;;;;;;0.10;0.10;;;;;;;;;;5020015;28;20666;-64
2021/01/21 13:58:00;;;;;;;0.10;0.10;;;;;;;;;;5066556;27;20597;-63
2021/01/21 14:09:42;;;;;;;0.57;0.33;;;;;;;;;;5090277;28;20176;-61
2021/01/21 14:12:12;;;;;;;0.10;0.10;;;;;;;;;;5090588;28;20254;-63
2021/01/21 14:18:19;;;;;;;1.60;0.50;;;;;;;;;;5070368;28;20680;-62
2021/01/21 14:24:04;;;;;;;30.57;0.53;;;;;;;;;;5070049;28;20301;-62
2021/01/21 14:27:08;;;;;;;3.40;0.63;;;;;;;;;;5069486;28;20541;-61
2021/01/21 14:35:38;;;;;;;0.30;0.30;;;;;;;;;;5069483;28;20248;-62
2021/01/21 14:44:12;;;;;;;0.10;0.10;;;;;;;;;;5069894;28;20178;-61
2021/01/21 14:49:54;;;;;;;0.10;0.10;;;;;;;;;;5069479;28;20672;-62
2021/01/21 14:55:26;;;;;;;0.10;0.10;;;;;;;;;;5069650;28;20178;-62
2021/01/21 15:04:39;;;;;;;0.10;0.10;;;;;;;;;;5069115;28;20636;-62
2021/01/21 15:13:27;;;;;;;0.00;0.00;;;;;;;;;;5076413;28;20175;-62
2021/01/21 15:22:00;;;;;;;0.00;0.00;;;;;;;;;;5055147;28;20179;-62
2021/01/21 15:27:31;;;;;;;0.20;0.20;;;;;;;;;;5043645;28;20193;-62
2021/01/21 15:29:57;;;;;;;0.30;0.30;;;;;;;;;;5045453;28;20180;-65
2021/01/21 15:32:24;;;;;;;0.17;0.10;;;;;;;;;;5045310;28;20725;-64
2021/01/21 15:34:51;;;;;;;0.20;0.20;;;;;;;;;;5045171;28;20706;-63
2021/01/21 15:37:18;;;;;;;0.10;0.10;;;;;;;;;;5044857;28;20222;-64
2021/01/21 15:39:45;;;;;;;0.00;0.00;;;;;;;;;;5045697;28;20190;-64
2021/01/21 15:42:12;;;;;;;22.73;0.97;;;;;;;;;;5045110;28;20257;-63
2021/01/21 15:44:39;;;;;;;0.10;0.10;;;;;;;;;;5043592;28;20534;-63
2021/01/21 15:47:05;;;;;;;0.43;0.20;;;;;;;;;;5037064;28;20178;-63
2021/01/21 15:49:32;;;;;;;0.03;0.03;;;;;;;;;;5045579;28;20172;-63
2021/01/21 15:51:58;;;;;;;0.43;0.13;;;;;;;;;;5045238;28;20288;-62
2021/01/21 15:54:28;;;;;;;0.00;0.00;;;;;;;;;;5045432;28;20838;-64
2021/01/21 15:56:55;;;;;;;0.00;0.00;;;;;;;;;;5046009;28;20594;-62
2021/01/21 15:59:43;;;;;;;0.00;0.00;;;;;;;;;;5047593;28;20229;-64
2021/01/21 16:02:43;;;;;;;0.00;0.00;;;;;;;;;;5051981;28;20182;-64
2021/01/21 16:08:35;;;;;;;0.30;0.20;;;;;;;;;;5049049;28;20237;-62
2021/01/21 16:17:08;;;;;;;0.00;0.00;;;;;;;;;;5036534;28;20265;-64
2021/01/21 16:19:35;;;;;;;0.20;0.20;;;;;;;;;;5039280;28;20186;-63
2021/01/21 16:22:01;;;;;;;0.00;0.00;;;;;;;;;;5038194;28;20701;-63
2021/01/21 16:24:28;;;;;;;0.00;0.00;;;;;;;;;;5045155;28;20186;-64
2021/01/21 16:26:55;;;;;;;0.10;0.10;;;;;;;;;;5042953;28;20182;-62
2021/01/21 16:29:21;;;;;;;0.10;0.10;;;;;;;;;;5042743;28;20184;-63
2021/01/21 16:31:48;;;;;;;1.30;0.17;;;;;;;;;;5045368;28;20619;-65
2021/01/21 16:34:15;;;;;;;0.87;0.20;;;;;;;;;;5043641;28;20195;-63
2021/01/21 16:36:42;;;;;;;0.10;0.10;;;;;;;;;;5043891;28;20247;-62
2021/01/21 16:39:08;;;;;;;0.00;0.00;;;;;;;;;;5044264;28;20215;-64
2021/01/21 19:01:06;;;;;;;0.00;0.00;;;;;;;;;;5655228;23;20232;-62
2021/01/21 19:03:32;;;;;;;0.20;0.20;;;;;;;;;;5014722;28;20245;-63
2021/01/21 19:05:59;;;;;;;0.00;0.00;;;;;;;;;;5021359;28;20172;-64
2021/01/21 19:08:26;;;;;;;0.00;0.00;;;;;;;;;;5020658;28;20173;-63
2021/01/21 19:10:52;;;;;;;1.10;1.03;;;;;;;;;;5024842;28;20196;-60
2021/01/21 19:13:19;;;;;;;0.10;0.10;;;;;;;;;;5020139;28;20216;-62
2021/01/21 19:15:45;;;;;;;0.00;0.00;;;;;;;;;;5024964;28;20191;-61
2021/01/21 19:18:12;;;;;;;0.00;0.00;;;;;;;;;;5021233;28;20190;-60
2021/01/21 19:20:39;;;;;;;0.00;0.00;;;;;;;;;;5024468;28;20267;-61
2021/01/21 19:23:05;;;;;;;0.10;0.10;;;;;;;;;;5023384;28;20172;-60
2021/01/21 19:25:32;;;;;;;1.10;0.40;;;;;;;;;;5027034;28;20179;-60
2021/01/21 19:27:59;;;;;;;0.57;0.57;;;;;;;;;;5027117;28;20746;-60
2021/01/21 19:30:26;;;;;;;0.20;0.20;;;;;;;;;;5025889;28;20180;-60
2021/01/21 19:32:52;;;;;;;0.10;0.10;;;;;;;;;;5020904;28;20725;-60
2021/01/21 19:35:19;;;;;;;2.43;2.23;;;;;;;;;;5026129;28;20183;-62
2021/01/21 19:37:46;;;;;;;0.00;0.00;;;;;;;;;;5026512;28;20889;-62
2021/01/21 19:40:13;;;;;;;0.83;0.23;;;;;;;;;;5026305;28;20200;-61
2021/01/21 19:42:40;;;;;;;0.00;0.00;;;;;;;;;;5024983;28;20231;-61
2021/01/21 19:45:07;;;;;;;0.10;0.10;;;;;;;;;;5025058;28;20199;-62
2021/01/21 19:47:35;;;;;;;0.77;0.73;;;;;;;;;;5025370;28;20188;-62
2021/01/21 19:50:03;;;;;;;0.20;0.10;;;;;;;;;;5026776;28;20181;-61
2021/01/21 19:52:30;;;;;;;0.10;0.10;;;;;;;;;;5026881;28;20592;-62
2021/01/21 19:54:57;;;;;;;0.10;0.10;;;;;;;;;;5026153;28;20194;-61
2021/01/21 19:57:23;;;;;;;0.30;0.30;;;;;;;;;;5023642;28;20212;-60
2021/01/21 19:59:50;;;;;;;0.10;0.10;;;;;;;;;;5020878;28;20176;-59
2021/01/21 20:02:19;;;;;;;0.20;0.20;;;;;;;;;;5025219;28;20224;-62
2021/01/21 20:04:45;;;;;;;0.20;0.20;;;;;;;;;;5025240;28;20187;-61
2021/01/21 20:07:12;;;;;;;0.03;0.03;;;;;;;;;;5026979;28;20212;-62
2021/01/21 20:09:40;;;;;;;0.27;0.23;;;;;;;;;;5012542;28;20584;-59
2021/01/21 20:12:07;;;;;;;0.60;0.20;;;;;;;;;;5002349;28;20208;-61
2021/01/21 20:14:33;;;;;;;1.27;0.20;;;;;;;;;;5013837;28;21061;-60
2021/01/21 20:17:00;;;;;;;0.03;0.03;;;;;;;;;;5011367;28;20224;-63
2021/01/21 20:19:28;;;;;;;0.10;0.10;;;;;;;;;;5010382;28;20728;-64
2021/01/21 20:24:59;;;;;;;2.43;0.20;;;;;;;;;;5006169;28;20222;-61
2021/01/21 20:27:25;;;;;;;0.10;0.10;;;;;;;;;;5011842;28;20246;-61
2021/01/21 20:32:55;;;;;;;0.83;0.47;;;;;;;;;;5024454;28;20246;-60
2021/01/21 20:38:25;;;;;;;0.20;0.10;;;;;;;;;;5021342;28;20223;-60
2021/01/21 20:43:55;;;;;;;0.10;0.10;;;;;;;;;;5022615;28;20180;-62
2021/01/21 20:49:26;;;;;;;0.00;0.00;;;;;;;;;;5040627;28;20190;-62
2021/01/21 20:54:56;;;;;;;2.53;0.30;;;;;;;;;;5041282;28;20187;-63
2021/01/21 21:02:56;;;;;;;0.00;0.00;;;;;;;;;;5039222;28;20183;-65
2021/01/21 21:11:20;;;;;;;0.00;0.00;;;;;;;;;;4994245;28;20188;-63
2021/01/21 21:16:51;;;;;;;1.43;0.40;;;;;;;;;;4978348;28;20224;-63
2021/01/21 21:22:21;;;;;;;0.00;0.00;;;;;;;;;;4978578;28;20188;-64
2021/01/21 21:27:51;;;;;;;0.37;0.37;;;;;;;;;;4977996;28;20193;-62
2021/01/21 21:33:22;;;;;;;0.20;0.20;;;;;;;;;;4978043;28;20185;-63
2021/01/21 21:38:52;;;;;;;0.00;0.00;;;;;;;;;;4978233;28;20196;-64
2021/01/21 21:44:23;;;;;;;0.00;0.00;;;;;;;;;;4978138;28;20223;-65
2021/01/21 21:49:54;;;;;;;0.00;0.00;;;;;;;;;;4977898;28;20192;-63
2021/01/21 21:55:25;;;;;;;0.10;0.10;;;;;;;;;;4977573;28;20330;-63
2021/01/21 22:00:55;;;;;;;0.00;0.00;;;;;;;;;;4978315;28;20184;-64
2021/01/21 22:06:25;;;;;;;0.00;0.00;;;;;;;;;;4984487;28;20239;-64
2021/01/21 22:11:56;;;;;;;0.00;0.00;;;;;;;;;;4996850;28;20562;-64
2021/01/21 22:17:26;;;;;;;0.00;0.00;;;;;;;;;;4982967;28;20259;-63
2021/01/21 22:22:57;;;;;;;0.00;0.00;;;;;;;;;;4980518;28;20191;-63
2021/01/21 22:28:27;;;;;;;0.00;0.00;;;;;;;;;;4981339;28;20204;-63
2021/01/21 22:33:57;;;;;;;0.00;0.00;;;;;;;;;;4994645;28;20745;-63
2021/01/21 22:39:27;;;;;;;0.00;0.00;;;;;;;;;;4999683;28;20730;-63
2021/01/21 22:44:57;;;;;;;4.00;1.57;;;;;;;;;;4999593;28;20238;-63
2021/01/21 22:50:27;;;;;;;0.00;0.00;;;;;;;;;;5000933;22;20260;-64
2021/01/21 22:52:53;;;;;;;0.00;0.00;;;;;;;;;;4988488;28;20795;-65
2021/01/21 22:55:21;;;;;;;0.00;0.00;;;;;;;;;;4998252;28;20200;-64
2021/01/21 22:57:49;;;;;;;0.10;0.10;;;;;;;;;;4988807;28;20369;-64
2021/01/21 23:00:18;;;;;;;0.00;0.00;;;;;;;;;;4985567;28;20188;-64
2021/01/21 23:02:44;;;;;;;0.00;0.00;;;;;;;;;;4980437;28;20199;-64
2021/01/21 23:05:12;;;;;;;0.00;0.00;;;;;;;;;;4986438;28;20189;-73
2021/01/21 23:07:39;;;;;;;0.00;0.00;;;;;;;;;;4976630;28;20267;-73
2021/01/21 23:10:06;;;;;;;0.00;0.00;;;;;;;;;;4968807;28;20192;-71
2021/01/21 23:12:33;;;;;;;0.00;0.00;;;;;;;;;;4987088;28;20717;-72
2021/01/21 23:15:06;;;;;;;1.20;0.77;;;;;;;;;;4986107;28;20203;-72
2021/01/21 23:17:32;;;;;;;0.00;0.00;;;;;;;;;;4983614;28;20227;-73
2021/01/21 23:19:59;;;;;;;0.00;0.00;;;;;;;;;;4989215;28;20660;-72
2021/01/21 23:22:26;;;;;;;0.00;0.00;;;;;;;;;;4984482;28;20776;-72
2021/01/21 23:24:52;;;;;;;0.00;0.00;;;;;;;;;;4992594;28;20196;-73
2021/01/21 23:27:19;;;;;;;0.00;0.00;;;;;;;;;;4985028;28;20196;-72
2021/01/21 23:29:46;;;;;;;0.00;0.00;;;;;;;;;;4984159;28;20206;-72
2021/01/21 23:32:13;;;;;;;0.00;0.00;;;;;;;;;;4991615;28;20200;-72
2021/01/21 23:34:41;;;;;;;0.10;0.10;;;;;;;;;;4984655;28;20191;-72
2021/01/21 23:37:08;;;;;;;0.00;0.00;;;;;;;;;;4990164;28;20662;-72
2021/01/21 23:39:34;;;;;;;0.00;0.00;;;;;;;;;;4986146;28;20278;-71
2021/01/21 23:42:01;;;;;;;0.00;0.00;;;;;;;;;;4988513;28;20185;-72
2021/01/21 23:44:27;;;;;;;0.00;0.00;;;;;;;;;;5003216;28;20187;-71
2021/01/21 23:46:54;;;;;;;0.00;0.00;;;;;;;;;;4984157;28;20271;-72
2021/01/21 23:49:20;;;;;;;0.20;0.20;;;;;;;;;;4984952;28;20199;-72
2021/01/21 23:51:47;;;;;;;0.13;0.13;;;;;;;;;;4994414;28;20266;-72
2021/01/21 23:54:15;;;;;;;0.00;0.00;;;;;;;;;;4979588;28;20194;-73
2021/01/21 23:56:42;;;;;;;1.40;1.30;;;;;;;;;;4977614;28;20323;-73
2021/01/21 23:59:09;;;;;;;0.43;0.43;;;;;;;;;;4981431;28;20245;-71
